sensor_id;sensor_type;location;lat;lon;timestamp;P1;durP1;ratioP1;P2;durP2;ratioP2
24743;SDS011;12844;52.110;5.548;2022-08-21T00:00:17;1.70;;;1.40;;
24743;SDS011;12844;52.110;5.548;2022-08-21T00:02:53;1.58;;;1.45;;
24743;SDS011;12844;52.110;5.548;2022-08-21T00:05:21;1.48;;;1.30;;
24743;SDS011;12844;52.110;5.548;2022-08-21T00:07:47;1.65;;;1.33;;
24743;SDS011;12844;52.110;5.548;2022-08-21T00:10:13;2.70;;;1.40;;
24743;SDS011;12844;52.110;5.548;2022-08-21T00:12:40;1.92;;;1.40;;
24743;SDS011;12844;52.110;5.548;2022-08-21T00:15:07;2.13;;;1.50;;
24743;SDS011;12844;52.110;5.548;2022-08-21T00:17:35;1.58;;;1.40;;
24743;SDS011;12844;52.110;5.548;2022-08-21T00:20:03;2.80;;;1.50;;
24743;SDS011;12844;52.110;5.548;2022-08-21T00:22:32;1.90;;;1.50;;
24743;SDS011;12844;52.110;5.548;2022-08-21T00:24:57;1.75;;;1.23;;
24743;SDS011;12844;52.110;5.548;2022-08-21T00:27:23;2.00;;;1.48;;
24743;SDS011;12844;52.110;5.548;2022-08-21T00:29:49;1.40;;;1.30;;
24743;SDS011;12844;52.110;5.548;2022-08-21T00:32:19;2.10;;;1.50;;
24743;SDS011;12844;52.110;5.548;2022-08-21T00:34:48;1.88;;;1.40;;
24743;SDS011;12844;52.110;5.548;2022-08-21T00:37:13;2.17;;;1.40;;
24743;SDS011;12844;52.110;5.548;2022-08-21T00:39:39;1.88;;;1.50;;
24743;SDS011;12844;52.110;5.548;2022-08-21T00:42:05;2.40;;;1.35;;
24743;SDS011;12844;52.110;5.548;2022-08-21T00:44:30;1.83;;;1.48;;
24743;SDS011;12844;52.110;5.548;2022-08-21T00:46:56;2.05;;;1.52;;
24743;SDS011;12844;52.110;5.548;2022-08-21T00:49:22;2.72;;;1.55;;
24743;SDS011;12844;52.110;5.548;2022-08-21T00:51:49;1.90;;;1.48;;
24743;SDS011;12844;52.110;5.548;2022-08-21T00:54:17;1.75;;;1.45;;
24743;SDS011;12844;52.110;5.548;2022-08-21T00:56:53;1.77;;;1.50;;
24743;SDS011;12844;52.110;5.548;2022-08-21T00:59:22;1.88;;;1.38;;
24743;SDS011;12844;52.110;5.548;2022-08-21T01:01:49;2.38;;;1.48;;
24743;SDS011;12844;52.110;5.548;2022-08-21T01:04:15;1.35;;;1.20;;
24743;SDS011;12844;52.110;5.548;2022-08-21T01:06:42;1.88;;;1.50;;
24743;SDS011;12844;52.110;5.548;2022-08-21T01:09:07;1.65;;;1.40;;
24743;SDS011;12844;52.110;5.548;2022-08-21T01:11:34;2.97;;;1.55;;
24743;SDS011;12844;52.110;5.548;2022-08-21T01:14:00;1.67;;;1.35;;
24743;SDS011;12844;52.110;5.548;2022-08-21T01:16:25;1.48;;;1.38;;
24743;SDS011;12844;52.110;5.548;2022-08-21T01:18:51;2.60;;;1.58;;
24743;SDS011;12844;52.110;5.548;2022-08-21T01:21:19;2.60;;;1.63;;
24743;SDS011;12844;52.110;5.548;2022-08-21T01:23:50;1.50;;;1.40;;
24743;SDS011;12844;52.110;5.548;2022-08-21T01:26:18;2.58;;;1.70;;
24743;SDS011;12844;52.110;5.548;2022-08-21T01:28:58;2.33;;;1.60;;
24743;SDS011;12844;52.110;5.548;2022-08-21T01:31:29;1.73;;;1.50;;
24743;SDS011;12844;52.110;5.548;2022-08-21T01:33:56;2.10;;;1.52;;
24743;SDS011;12844;52.110;5.548;2022-08-21T01:36:22;1.70;;;1.60;;
24743;SDS011;12844;52.110;5.548;2022-08-21T01:38:49;2.40;;;1.55;;
24743;SDS011;12844;52.110;5.548;2022-08-21T01:41:14;2.13;;;1.45;;
24743;SDS011;12844;52.110;5.548;2022-08-21T01:43:41;2.03;;;1.70;;
24743;SDS011;12844;52.110;5.548;2022-08-21T01:46:07;1.73;;;1.50;;
24743;SDS011;12844;52.110;5.548;2022-08-21T01:48:33;1.80;;;1.40;;
24743;SDS011;12844;52.110;5.548;2022-08-21T01:50:59;2.03;;;1.60;;
24743;SDS011;12844;52.110;5.548;2022-08-21T01:53:25;1.80;;;1.52;;
24743;SDS011;12844;52.110;5.548;2022-08-21T01:55:51;1.80;;;1.60;;
24743;SDS011;12844;52.110;5.548;2022-08-21T01:58:16;1.70;;;1.60;;
24743;SDS011;12844;52.110;5.548;2022-08-21T02:00:42;1.85;;;1.38;;
24743;SDS011;12844;52.110;5.548;2022-08-21T02:03:08;2.42;;;1.70;;
24743;SDS011;12844;52.110;5.548;2022-08-21T02:05:33;3.40;;;1.90;;
24743;SDS011;12844;52.110;5.548;2022-08-21T02:07:59;2.40;;;1.92;;
24743;SDS011;12844;52.110;5.548;2022-08-21T02:10:26;1.92;;;1.63;;
24743;SDS011;12844;52.110;5.548;2022-08-21T02:12:54;2.53;;;1.90;;
24743;SDS011;12844;52.110;5.548;2022-08-21T02:15:21;2.05;;;1.75;;
24743;SDS011;12844;52.110;5.548;2022-08-21T02:17:48;2.22;;;1.90;;
24743;SDS011;12844;52.110;5.548;2022-08-21T02:20:22;2.88;;;1.90;;
24743;SDS011;12844;52.110;5.548;2022-08-21T02:22:50;2.47;;;1.90;;
24743;SDS011;12844;52.110;5.548;2022-08-21T02:25:17;2.53;;;1.90;;
24743;SDS011;12844;52.110;5.548;2022-08-21T02:27:44;2.40;;;1.83;;
24743;SDS011;12844;52.110;5.548;2022-08-21T02:30:17;2.33;;;1.75;;
24743;SDS011;12844;52.110;5.548;2022-08-21T02:32:45;2.80;;;1.60;;
24743;SDS011;12844;52.110;5.548;2022-08-21T02:35:11;2.30;;;1.83;;
24743;SDS011;12844;52.110;5.548;2022-08-21T02:37:44;2.03;;;1.80;;
24743;SDS011;12844;52.110;5.548;2022-08-21T02:40:15;1.70;;;1.60;;
24743;SDS011;12844;52.110;5.548;2022-08-21T02:42:43;1.98;;;1.55;;
24743;SDS011;12844;52.110;5.548;2022-08-21T02:45:10;2.42;;;1.90;;
24743;SDS011;12844;52.110;5.548;2022-08-21T02:47:36;1.60;;;1.50;;
24743;SDS011;12844;52.110;5.548;2022-08-21T02:50:03;2.17;;;1.85;;
24743;SDS011;12844;52.110;5.548;2022-08-21T02:52:29;2.00;;;1.80;;
24743;SDS011;12844;52.110;5.548;2022-08-21T02:54:54;1.70;;;1.60;;
24743;SDS011;12844;52.110;5.548;2022-08-21T02:57:20;2.00;;;1.80;;
24743;SDS011;12844;52.110;5.548;2022-08-21T02:59:45;1.98;;;1.60;;
24743;SDS011;12844;52.110;5.548;2022-08-21T03:02:12;1.77;;;1.67;;
24743;SDS011;12844;52.110;5.548;2022-08-21T03:04:37;3.75;;;1.80;;
24743;SDS011;12844;52.110;5.548;2022-08-21T03:07:03;2.47;;;1.70;;
24743;SDS011;12844;52.110;5.548;2022-08-21T03:09:29;2.25;;;1.70;;
24743;SDS011;12844;52.110;5.548;2022-08-21T03:11:54;2.28;;;1.77;;
24743;SDS011;12844;52.110;5.548;2022-08-21T03:14:20;2.17;;;1.98;;
24743;SDS011;12844;52.110;5.548;2022-08-21T03:16:45;2.08;;;1.52;;
24743;SDS011;12844;52.110;5.548;2022-08-21T03:19:11;2.38;;;1.80;;
24743;SDS011;12844;52.110;5.548;2022-08-21T03:21:37;2.55;;;1.70;;
24743;SDS011;12844;52.110;5.548;2022-08-21T03:24:03;1.98;;;1.77;;
24743;SDS011;12844;52.110;5.548;2022-08-21T03:26:29;2.50;;;1.70;;
24743;SDS011;12844;52.110;5.548;2022-08-21T03:28:55;2.13;;;1.92;;
24743;SDS011;12844;52.110;5.548;2022-08-21T03:31:22;2.08;;;1.88;;
24743;SDS011;12844;52.110;5.548;2022-08-21T03:33:48;1.80;;;1.70;;
24743;SDS011;12844;52.110;5.548;2022-08-21T03:36:14;2.58;;;1.80;;
24743;SDS011;12844;52.110;5.548;2022-08-21T03:38:40;2.10;;;1.67;;
24743;SDS011;12844;52.110;5.548;2022-08-21T03:41:06;2.30;;;1.58;;
24743;SDS011;12844;52.110;5.548;2022-08-21T03:43:33;2.10;;;1.90;;
24743;SDS011;12844;52.110;5.548;2022-08-21T03:46:03;1.95;;;1.63;;
24743;SDS011;12844;52.110;5.548;2022-08-21T03:48:29;2.80;;;2.00;;
24743;SDS011;12844;52.110;5.548;2022-08-21T03:50:55;2.22;;;1.83;;
24743;SDS011;12844;52.110;5.548;2022-08-21T03:53:21;2.97;;;1.75;;
24743;SDS011;12844;52.110;5.548;2022-08-21T03:55:48;1.90;;;1.70;;
24743;SDS011;12844;52.110;5.548;2022-08-21T03:58:16;2.60;;;1.90;;
24743;SDS011;12844;52.110;5.548;2022-08-21T04:00:47;3.00;;;1.80;;
24743;SDS011;12844;52.110;5.548;2022-08-21T04:03:15;2.00;;;1.80;;
24743;SDS011;12844;52.110;5.548;2022-08-21T04:05:41;2.10;;;1.88;;
24743;SDS011;12844;52.110;5.548;2022-08-21T04:08:07;2.42;;;1.90;;
24743;SDS011;12844;52.110;5.548;2022-08-21T04:10:34;2.53;;;1.98;;
24743;SDS011;12844;52.110;5.548;2022-08-21T04:13:01;2.15;;;1.90;;
24743;SDS011;12844;52.110;5.548;2022-08-21T04:15:27;2.42;;;2.20;;
24743;SDS011;12844;52.110;5.548;2022-08-21T04:17:53;3.60;;;1.92;;
24743;SDS011;12844;52.110;5.548;2022-08-21T04:20:19;2.10;;;1.90;;
24743;SDS011;12844;52.110;5.548;2022-08-21T04:22:46;2.55;;;2.00;;
24743;SDS011;12844;52.110;5.548;2022-08-21T04:25:13;2.70;;;2.00;;
24743;SDS011;12844;52.110;5.548;2022-08-21T04:27:40;2.75;;;1.80;;
24743;SDS011;12844;52.110;5.548;2022-08-21T04:30:06;2.00;;;1.77;;
24743;SDS011;12844;52.110;5.548;2022-08-21T04:32:34;2.72;;;1.75;;
24743;SDS011;12844;52.110;5.548;2022-08-21T04:35:01;2.05;;;1.85;;
24743;SDS011;12844;52.110;5.548;2022-08-21T04:37:29;2.10;;;1.75;;
24743;SDS011;12844;52.110;5.548;2022-08-21T04:39:55;2.22;;;1.90;;
24743;SDS011;12844;52.110;5.548;2022-08-21T04:42:23;2.35;;;1.95;;
24743;SDS011;12844;52.110;5.548;2022-08-21T04:44:52;2.50;;;2.10;;
24743;SDS011;12844;52.110;5.548;2022-08-21T04:47:18;1.83;;;1.73;;
24743;SDS011;12844;52.110;5.548;2022-08-21T04:49:44;2.30;;;2.00;;
24743;SDS011;12844;52.110;5.548;2022-08-21T04:52:10;2.08;;;1.88;;
24743;SDS011;12844;52.110;5.548;2022-08-21T04:54:38;2.95;;;1.88;;
24743;SDS011;12844;52.110;5.548;2022-08-21T04:57:05;2.28;;;1.83;;
24743;SDS011;12844;52.110;5.548;2022-08-21T04:59:35;2.38;;;1.80;;
24743;SDS011;12844;52.110;5.548;2022-08-21T05:02:12;2.20;;;2.00;;
24743;SDS011;12844;52.110;5.548;2022-08-21T05:04:43;2.55;;;1.98;;
24743;SDS011;12844;52.110;5.548;2022-08-21T05:07:15;1.98;;;1.77;;
24743;SDS011;12844;52.110;5.548;2022-08-21T05:09:43;1.98;;;1.77;;
24743;SDS011;12844;52.110;5.548;2022-08-21T05:12:09;2.13;;;1.83;;
24743;SDS011;12844;52.110;5.548;2022-08-21T05:14:35;2.13;;;1.90;;
24743;SDS011;12844;52.110;5.548;2022-08-21T05:17:01;2.67;;;1.77;;
24743;SDS011;12844;52.110;5.548;2022-08-21T05:19:26;1.88;;;1.77;;
24743;SDS011;12844;52.110;5.548;2022-08-21T05:21:52;1.88;;;1.70;;
24743;SDS011;12844;52.110;5.548;2022-08-21T05:24:18;2.05;;;1.80;;
24743;SDS011;12844;52.110;5.548;2022-08-21T05:26:44;2.50;;;1.80;;
24743;SDS011;12844;52.110;5.548;2022-08-21T05:29:11;2.40;;;2.00;;
24743;SDS011;12844;52.110;5.548;2022-08-21T05:31:37;2.00;;;1.70;;
24743;SDS011;12844;52.110;5.548;2022-08-21T05:34:03;3.33;;;2.10;;
24743;SDS011;12844;52.110;5.548;2022-08-21T05:36:29;2.08;;;1.88;;
24743;SDS011;12844;52.110;5.548;2022-08-21T08:53:49;2.85;;;1.70;;
24743;SDS011;12844;52.110;5.548;2022-08-21T08:56:15;2.05;;;1.50;;
24743;SDS011;12844;52.110;5.548;2022-08-21T08:58:46;1.90;;;1.30;;
24743;SDS011;12844;52.110;5.548;2022-08-21T09:01:16;1.42;;;1.33;;
24743;SDS011;12844;52.110;5.548;2022-08-21T09:03:44;2.05;;;1.48;;
24743;SDS011;12844;52.110;5.548;2022-08-21T09:19:29;2.35;;;1.73;;
24743;SDS011;12844;52.110;5.548;2022-08-21T09:24:47;2.00;;;1.50;;
24743;SDS011;12844;52.110;5.548;2022-08-21T09:27:26;2.00;;;1.45;;
24743;SDS011;12844;52.110;5.548;2022-08-21T09:29:53;1.48;;;1.27;;
24743;SDS011;12844;52.110;5.548;2022-08-21T09:32:21;2.22;;;1.60;;
24743;SDS011;12844;52.110;5.548;2022-08-21T09:35:03;2.55;;;1.35;;
24743;SDS011;12844;52.110;5.548;2022-08-21T09:37:29;1.92;;;1.15;;
24743;SDS011;12844;52.110;5.548;2022-08-21T09:39:57;1.70;;;1.30;;
24743;SDS011;12844;52.110;5.548;2022-08-21T09:42:25;1.60;;;1.15;;
24743;SDS011;12844;52.110;5.548;2022-08-21T09:45:10;1.90;;;1.27;;
24743;SDS011;12844;52.110;5.548;2022-08-21T09:47:41;2.03;;;1.30;;
24743;SDS011;12844;52.110;5.548;2022-08-21T09:50:14;1.70;;;1.23;;
24743;SDS011;12844;52.110;5.548;2022-08-21T09:52:46;2.78;;;1.40;;
24743;SDS011;12844;52.110;5.548;2022-08-21T09:55:39;2.80;;;1.30;;
24743;SDS011;12844;52.110;5.548;2022-08-21T09:58:30;1.48;;;1.33;;
24743;SDS011;12844;52.110;5.548;2022-08-21T10:00:59;2.15;;;1.20;;
24743;SDS011;12844;52.110;5.548;2022-08-21T10:03:27;1.65;;;1.33;;
24743;SDS011;12844;52.110;5.548;2022-08-21T10:05:58;2.17;;;1.50;;
24743;SDS011;12844;52.110;5.548;2022-08-21T10:08:31;2.15;;;1.30;;
24743;SDS011;12844;52.110;5.548;2022-08-21T10:11:05;2.38;;;1.40;;
24743;SDS011;12844;52.110;5.548;2022-08-21T10:24:52;1.77;;;1.25;;
24743;SDS011;12844;52.110;5.548;2022-08-21T10:30:12;1.55;;;1.15;;
24743;SDS011;12844;52.110;5.548;2022-08-21T10:35:27;1.85;;;1.42;;
24743;SDS011;12844;52.110;5.548;2022-08-21T10:38:08;1.83;;;1.20;;
24743;SDS011;12844;52.110;5.548;2022-08-21T10:48:24;2.08;;;1.10;;
24743;SDS011;12844;52.110;5.548;2022-08-21T10:51:12;2.25;;;1.30;;
24743;SDS011;12844;52.110;5.548;2022-08-21T10:56:38;1.95;;;1.25;;
24743;SDS011;12844;52.110;5.548;2022-08-21T11:01:59;2.28;;;1.05;;
24743;SDS011;12844;52.110;5.548;2022-08-21T11:04:42;1.75;;;1.23;;
24743;SDS011;12844;52.110;5.548;2022-08-21T11:07:35;1.77;;;1.27;;
24743;SDS011;12844;52.110;5.548;2022-08-21T11:10:10;1.23;;;1.13;;
24743;SDS011;12844;52.110;5.548;2022-08-21T11:23:25;2.00;;;1.10;;
24743;SDS011;12844;52.110;5.548;2022-08-21T11:26:05;1.48;;;1.02;;
24743;SDS011;12844;52.110;5.548;2022-08-21T11:28:39;2.17;;;1.08;;
24743;SDS011;12844;52.110;5.548;2022-08-21T11:37:12;1.40;;;1.05;;
24743;SDS011;12844;52.110;5.548;2022-08-21T11:40:00;1.27;;;1.17;;
24743;SDS011;12844;52.110;5.548;2022-08-21T11:42:40;1.58;;;1.38;;
24743;SDS011;12844;52.110;5.548;2022-08-21T11:45:47;1.35;;;1.10;;
24743;SDS011;12844;52.110;5.548;2022-08-21T11:50:51;1.98;;;1.10;;
24743;SDS011;12844;52.110;5.548;2022-08-21T11:53:24;1.73;;;1.30;;
24743;SDS011;12844;52.110;5.548;2022-08-21T11:55:59;1.67;;;0.90;;
24743;SDS011;12844;52.110;5.548;2022-08-21T12:03:38;1.60;;;1.10;;
24743;SDS011;12844;52.110;5.548;2022-08-21T12:06:56;1.95;;;1.25;;
24743;SDS011;12844;52.110;5.548;2022-08-21T12:11:59;2.28;;;1.13;;
24743;SDS011;12844;52.110;5.548;2022-08-21T12:14:38;1.65;;;1.00;;
24743;SDS011;12844;52.110;5.548;2022-08-21T12:17:07;1.50;;;1.10;;
24743;SDS011;12844;52.110;5.548;2022-08-21T12:19:41;1.73;;;1.02;;
24743;SDS011;12844;52.110;5.548;2022-08-21T12:22:09;2.47;;;1.33;;
24743;SDS011;12844;52.110;5.548;2022-08-21T12:27:39;1.52;;;1.10;;
24743;SDS011;12844;52.110;5.548;2022-08-21T12:30:18;1.40;;;1.17;;
24743;SDS011;12844;52.110;5.548;2022-08-21T12:32:58;1.10;;;1.00;;
24743;SDS011;12844;52.110;5.548;2022-08-21T12:35:42;1.48;;;1.20;;
24743;SDS011;12844;52.110;5.548;2022-08-21T12:38:12;1.88;;;1.27;;
24743;SDS011;12844;52.110;5.548;2022-08-21T12:43:29;1.27;;;1.17;;
24743;SDS011;12844;52.110;5.548;2022-08-21T12:45:59;1.10;;;0.95;;
24743;SDS011;12844;52.110;5.548;2022-08-21T12:48:33;1.30;;;1.10;;
24743;SDS011;12844;52.110;5.548;2022-08-21T12:51:11;1.70;;;1.10;;
24743;SDS011;12844;52.110;5.548;2022-08-21T12:53:47;1.08;;;1.00;;
24743;SDS011;12844;52.110;5.548;2022-08-21T12:56:22;2.65;;;1.20;;
24743;SDS011;12844;52.110;5.548;2022-08-21T12:58:53;1.52;;;1.20;;
24743;SDS011;12844;52.110;5.548;2022-08-21T13:03:46;1.27;;;1.05;;
24743;SDS011;12844;52.110;5.548;2022-08-21T13:06:14;2.33;;;1.30;;
24743;SDS011;12844;52.110;5.548;2022-08-21T13:08:42;1.50;;;1.02;;
24743;SDS011;12844;52.110;5.548;2022-08-21T13:11:10;1.88;;;1.20;;
24743;SDS011;12844;52.110;5.548;2022-08-21T13:13:40;1.10;;;1.00;;
24743;SDS011;12844;52.110;5.548;2022-08-21T13:16:07;2.75;;;1.20;;
24743;SDS011;12844;52.110;5.548;2022-08-21T13:18:37;1.00;;;0.90;;
24743;SDS011;12844;52.110;5.548;2022-08-21T13:21:16;1.27;;;1.00;;
24743;SDS011;12844;52.110;5.548;2022-08-21T13:23:42;2.17;;;1.40;;
24743;SDS011;12844;52.110;5.548;2022-08-21T13:26:14;1.13;;;1.00;;
24743;SDS011;12844;52.110;5.548;2022-08-21T13:28:41;2.50;;;1.02;;
24743;SDS011;12844;52.110;5.548;2022-08-21T13:31:08;1.65;;;1.20;;
24743;SDS011;12844;52.110;5.548;2022-08-21T13:33:35;1.27;;;1.17;;
24743;SDS011;12844;52.110;5.548;2022-08-21T13:36:04;1.20;;;1.10;;
24743;SDS011;12844;52.110;5.548;2022-08-21T13:38:36;1.10;;;1.00;;
24743;SDS011;12844;52.110;5.548;2022-08-21T13:41:14;1.60;;;0.93;;
24743;SDS011;12844;52.110;5.548;2022-08-21T13:43:44;1.15;;;1.02;;
24743;SDS011;12844;52.110;5.548;2022-08-21T13:46:14;1.67;;;1.10;;
24743;SDS011;12844;52.110;5.548;2022-08-21T13:48:40;1.10;;;0.90;;
24743;SDS011;12844;52.110;5.548;2022-08-21T13:51:07;1.42;;;1.17;;
24743;SDS011;12844;52.110;5.548;2022-08-21T13:53:55;1.30;;;1.00;;
24743;SDS011;12844;52.110;5.548;2022-08-21T13:56:30;1.52;;;1.00;;
24743;SDS011;12844;52.110;5.548;2022-08-21T13:59:05;1.40;;;1.20;;
24743;SDS011;12844;52.110;5.548;2022-08-21T14:01:32;1.45;;;0.98;;
24743;SDS011;12844;52.110;5.548;2022-08-21T14:04:25;2.08;;;1.20;;
24743;SDS011;12844;52.110;5.548;2022-08-21T14:06:50;1.48;;;1.05;;
24743;SDS011;12844;52.110;5.548;2022-08-21T14:11:59;1.58;;;1.02;;
24743;SDS011;12844;52.110;5.548;2022-08-21T14:14:31;1.40;;;0.90;;
24743;SDS011;12844;52.110;5.548;2022-08-21T14:17:03;1.13;;;1.02;;
24743;SDS011;12844;52.110;5.548;2022-08-21T14:19:38;1.15;;;1.02;;
24743;SDS011;12844;52.110;5.548;2022-08-21T14:25:03;1.50;;;1.00;;
24743;SDS011;12844;52.110;5.548;2022-08-21T14:27:32;1.00;;;0.90;;
24743;SDS011;12844;52.110;5.548;2022-08-21T14:30:08;1.67;;;1.00;;
24743;SDS011;12844;52.110;5.548;2022-08-21T14:32:38;1.30;;;1.20;;
24743;SDS011;12844;52.110;5.548;2022-08-21T14:35:05;1.23;;;1.08;;
24743;SDS011;12844;52.110;5.548;2022-08-21T14:37:32;1.65;;;1.08;;
24743;SDS011;12844;52.110;5.548;2022-08-21T14:39:58;1.00;;;0.90;;
24743;SDS011;12844;52.110;5.548;2022-08-21T14:42:23;1.45;;;1.20;;
24743;SDS011;12844;52.110;5.548;2022-08-21T14:44:49;1.30;;;0.98;;
24743;SDS011;12844;52.110;5.548;2022-08-21T14:47:15;1.10;;;1.00;;
24743;SDS011;12844;52.110;5.548;2022-08-21T14:49:41;1.10;;;0.85;;
24743;SDS011;12844;52.110;5.548;2022-08-21T14:52:07;1.75;;;1.10;;
24743;SDS011;12844;52.110;5.548;2022-08-21T14:54:33;1.55;;;1.13;;
24743;SDS011;12844;52.110;5.548;2022-08-21T14:57:00;1.35;;;1.00;;
24743;SDS011;12844;52.110;5.548;2022-08-21T14:59:29;2.05;;;1.10;;
24743;SDS011;12844;52.110;5.548;2022-08-21T15:01:57;1.25;;;1.00;;
24743;SDS011;12844;52.110;5.548;2022-08-21T15:04:23;1.10;;;1.00;;
24743;SDS011;12844;52.110;5.548;2022-08-21T15:06:49;1.73;;;1.00;;
24743;SDS011;12844;52.110;5.548;2022-08-21T15:09:14;1.80;;;1.13;;
24743;SDS011;12844;52.110;5.548;2022-08-21T15:11:40;1.35;;;0.93;;
24743;SDS011;12844;52.110;5.548;2022-08-21T15:14:07;1.63;;;1.10;;
24743;SDS011;12844;52.110;5.548;2022-08-21T15:16:44;1.30;;;0.90;;
24743;SDS011;12844;52.110;5.548;2022-08-21T15:19:10;1.73;;;1.10;;
24743;SDS011;12844;52.110;5.548;2022-08-21T15:21:35;1.00;;;0.90;;
24743;SDS011;12844;52.110;5.548;2022-08-21T15:24:01;1.02;;;0.93;;
24743;SDS011;12844;52.110;5.548;2022-08-21T15:26:26;1.20;;;1.00;;
24743;SDS011;12844;52.110;5.548;2022-08-21T15:28:52;1.17;;;1.00;;
24743;SDS011;12844;52.110;5.548;2022-08-21T15:31:18;1.17;;;1.00;;
24743;SDS011;12844;52.110;5.548;2022-08-21T15:33:43;1.83;;;1.25;;
24743;SDS011;12844;52.110;5.548;2022-08-21T15:36:09;1.35;;;1.00;;
24743;SDS011;12844;52.110;5.548;2022-08-21T15:38:34;1.55;;;1.08;;
24743;SDS011;12844;52.110;5.548;2022-08-21T15:41:01;1.08;;;0.98;;
24743;SDS011;12844;52.110;5.548;2022-08-21T15:43:29;1.40;;;1.00;;
24743;SDS011;12844;52.110;5.548;2022-08-21T15:46:00;1.50;;;1.00;;
24743;SDS011;12844;52.110;5.548;2022-08-21T15:48:26;1.55;;;0.88;;
24743;SDS011;12844;52.110;5.548;2022-08-21T15:50:52;1.30;;;0.93;;
24743;SDS011;12844;52.110;5.548;2022-08-21T15:53:17;1.38;;;0.90;;
24743;SDS011;12844;52.110;5.548;2022-08-21T15:55:43;1.10;;;0.85;;
24743;SDS011;12844;52.110;5.548;2022-08-21T15:58:12;1.67;;;1.00;;
24743;SDS011;12844;52.110;5.548;2022-08-21T16:00:41;0.98;;;0.88;;
24743;SDS011;12844;52.110;5.548;2022-08-21T16:03:09;1.88;;;1.02;;
24743;SDS011;12844;52.110;5.548;2022-08-21T16:05:39;1.00;;;0.90;;
24743;SDS011;12844;52.110;5.548;2022-08-21T16:08:05;1.67;;;0.98;;
24743;SDS011;12844;52.110;5.548;2022-08-21T16:10:31;1.75;;;1.05;;
24743;SDS011;12844;52.110;5.548;2022-08-21T16:12:57;1.45;;;0.90;;
24743;SDS011;12844;52.110;5.548;2022-08-21T16:15:27;1.60;;;1.00;;
24743;SDS011;12844;52.110;5.548;2022-08-21T16:17:53;1.30;;;1.20;;
24743;SDS011;12844;52.110;5.548;2022-08-21T16:20:21;2.00;;;1.08;;
24743;SDS011;12844;52.110;5.548;2022-08-21T16:22:49;1.10;;;1.00;;
24743;SDS011;12844;52.110;5.548;2022-08-21T16:25:16;1.25;;;1.10;;
24743;SDS011;12844;52.110;5.548;2022-08-21T16:27:43;1.55;;;1.10;;
24743;SDS011;12844;52.110;5.548;2022-08-21T16:30:11;0.95;;;0.90;;
24743;SDS011;12844;52.110;5.548;2022-08-21T16:32:39;1.58;;;1.00;;
24743;SDS011;12844;52.110;5.548;2022-08-21T16:35:05;1.83;;;1.20;;
24743;SDS011;12844;52.110;5.548;2022-08-21T16:37:31;1.13;;;1.00;;
24743;SDS011;12844;52.110;5.548;2022-08-21T16:39:56;1.50;;;1.10;;
24743;SDS011;12844;52.110;5.548;2022-08-21T16:42:23;0.93;;;0.88;;
24743;SDS011;12844;52.110;5.548;2022-08-21T16:44:50;1.13;;;1.02;;
24743;SDS011;12844;52.110;5.548;2022-08-21T16:47:16;1.60;;;1.00;;
24743;SDS011;12844;52.110;5.548;2022-08-21T16:49:42;1.45;;;1.08;;
24743;SDS011;12844;52.110;5.548;2022-08-21T16:52:07;1.65;;;0.98;;
24743;SDS011;12844;52.110;5.548;2022-08-21T16:54:33;1.35;;;1.10;;
24743;SDS011;12844;52.110;5.548;2022-08-21T16:56:59;1.10;;;1.00;;
24743;SDS011;12844;52.110;5.548;2022-08-21T16:59:24;2.00;;;1.10;;
24743;SDS011;12844;52.110;5.548;2022-08-21T17:01:51;1.63;;;1.10;;
24743;SDS011;12844;52.110;5.548;2022-08-21T17:04:18;1.10;;;0.90;;
24743;SDS011;12844;52.110;5.548;2022-08-21T17:06:44;1.52;;;1.17;;
24743;SDS011;12844;52.110;5.548;2022-08-21T17:09:11;1.23;;;0.93;;
24743;SDS011;12844;52.110;5.548;2022-08-21T17:11:37;1.77;;;1.10;;
24743;SDS011;12844;52.110;5.548;2022-08-21T17:14:06;1.10;;;1.00;;
24743;SDS011;12844;52.110;5.548;2022-08-21T17:16:40;1.35;;;0.88;;
24743;SDS011;12844;52.110;5.548;2022-08-21T17:19:09;0.95;;;0.80;;
24743;SDS011;12844;52.110;5.548;2022-08-21T17:21:36;1.45;;;1.05;;
24743;SDS011;12844;52.110;5.548;2022-08-21T17:24:02;1.25;;;1.10;;
24743;SDS011;12844;52.110;5.548;2022-08-21T17:26:28;1.40;;;0.98;;
24743;SDS011;12844;52.110;5.548;2022-08-21T17:28:54;1.10;;;1.00;;
24743;SDS011;12844;52.110;5.548;2022-08-21T17:31:20;1.35;;;1.10;;
24743;SDS011;12844;52.110;5.548;2022-08-21T17:33:47;1.40;;;1.10;;
24743;SDS011;12844;52.110;5.548;2022-08-21T17:36:17;1.00;;;1.00;;
24743;SDS011;12844;52.110;5.548;2022-08-21T17:38:47;2.10;;;1.00;;
24743;SDS011;12844;52.110;5.548;2022-08-21T17:41:12;0.95;;;0.77;;
24743;SDS011;12844;52.110;5.548;2022-08-21T17:43:39;1.10;;;1.00;;
24743;SDS011;12844;52.110;5.548;2022-08-21T17:46:05;1.42;;;1.10;;
24743;SDS011;12844;52.110;5.548;2022-08-21T17:48:31;1.30;;;1.10;;
24743;SDS011;12844;52.110;5.548;2022-08-21T17:50:57;1.25;;;1.00;;
24743;SDS011;12844;52.110;5.548;2022-08-21T17:53:22;1.50;;;1.10;;
24743;SDS011;12844;52.110;5.548;2022-08-21T17:55:48;0.95;;;0.73;;
24743;SDS011;12844;52.110;5.548;2022-08-21T17:58:15;1.38;;;1.02;;
24743;SDS011;12844;52.110;5.548;2022-08-21T18:00:40;1.30;;;1.15;;
24743;SDS011;12844;52.110;5.548;2022-08-21T18:03:08;1.30;;;1.00;;
24743;SDS011;12844;52.110;5.548;2022-08-21T18:05:39;2.22;;;1.10;;
24743;SDS011;12844;52.110;5.548;2022-08-21T18:08:12;1.55;;;0.90;;
24743;SDS011;12844;52.110;5.548;2022-08-21T18:10:40;1.35;;;0.88;;
24743;SDS011;12844;52.110;5.548;2022-08-21T18:15:38;1.02;;;0.93;;
24743;SDS011;12844;52.110;5.548;2022-08-21T18:18:09;1.40;;;1.27;;
24743;SDS011;12844;52.110;5.548;2022-08-21T18:20:36;1.45;;;1.00;;
24743;SDS011;12844;52.110;5.548;2022-08-21T18:23:01;1.13;;;0.90;;
24743;SDS011;12844;52.110;5.548;2022-08-21T18:25:27;1.33;;;0.80;;
24743;SDS011;12844;52.110;5.548;2022-08-21T18:27:54;2.22;;;1.10;;
24743;SDS011;12844;52.110;5.548;2022-08-21T18:30:21;1.10;;;1.00;;
24743;SDS011;12844;52.110;5.548;2022-08-21T18:32:48;1.38;;;0.90;;
24743;SDS011;12844;52.110;5.548;2022-08-21T18:35:16;1.63;;;1.00;;
24743;SDS011;12844;52.110;5.548;2022-08-21T18:37:42;1.10;;;1.00;;
24743;SDS011;12844;52.110;5.548;2022-08-21T18:40:08;1.23;;;1.08;;
24743;SDS011;12844;52.110;5.548;2022-08-21T18:42:42;1.25;;;0.90;;
24743;SDS011;12844;52.110;5.548;2022-08-21T18:45:11;1.50;;;0.90;;
24743;SDS011;12844;52.110;5.548;2022-08-21T18:47:40;1.40;;;1.20;;
24743;SDS011;12844;52.110;5.548;2022-08-21T18:50:10;1.45;;;0.93;;
24743;SDS011;12844;52.110;5.548;2022-08-21T18:52:38;1.35;;;1.10;;
24743;SDS011;12844;52.110;5.548;2022-08-21T18:55:06;1.48;;;0.90;;
24743;SDS011;12844;52.110;5.548;2022-08-21T18:57:32;1.30;;;1.00;;
24743;SDS011;12844;52.110;5.548;2022-08-21T19:00:00;1.20;;;1.00;;
24743;SDS011;12844;52.110;5.548;2022-08-21T19:02:32;1.65;;;1.00;;
24743;SDS011;12844;52.110;5.548;2022-08-21T19:04:58;1.15;;;0.93;;
24743;SDS011;12844;52.110;5.548;2022-08-21T19:07:24;1.77;;;0.90;;
24743;SDS011;12844;52.110;5.548;2022-08-21T19:09:49;1.17;;;1.00;;
24743;SDS011;12844;52.110;5.548;2022-08-21T19:12:17;1.73;;;1.30;;
24743;SDS011;12844;52.110;5.548;2022-08-21T19:14:47;1.30;;;1.13;;
24743;SDS011;12844;52.110;5.548;2022-08-21T19:17:13;1.85;;;1.00;;
24743;SDS011;12844;52.110;5.548;2022-08-21T19:19:38;1.70;;;1.00;;
24743;SDS011;12844;52.110;5.548;2022-08-21T19:22:04;0.95;;;0.80;;
24743;SDS011;12844;52.110;5.548;2022-08-21T19:24:31;1.38;;;1.10;;
24743;SDS011;12844;52.110;5.548;2022-08-21T19:26:57;2.00;;;1.17;;
24743;SDS011;12844;52.110;5.548;2022-08-21T19:29:23;1.27;;;0.90;;
24743;SDS011;12844;52.110;5.548;2022-08-21T19:31:48;1.60;;;1.10;;
24743;SDS011;12844;52.110;5.548;2022-08-21T19:34:17;2.20;;;1.00;;
24743;SDS011;12844;52.110;5.548;2022-08-21T19:36:49;1.20;;;1.00;;
24743;SDS011;12844;52.110;5.548;2022-08-21T19:39:15;1.10;;;1.00;;
24743;SDS011;12844;52.110;5.548;2022-08-21T19:41:43;1.90;;;1.00;;